createdAt,value
2019-04-01T00:02:09.622Z,2.52
2019-04-01T00:04:39.463Z,2.55
2019-04-01T00:07:27.206Z,2.42
2019-04-01T00:09:57.119Z,2.35
2019-04-01T00:12:28.549Z,2.85
2019-04-01T00:14:58.357Z,2.58
2019-04-01T00:17:28.212Z,2.30
2019-04-01T00:19:58.134Z,2.35
2019-04-01T00:22:28.029Z,2.25
2019-04-01T00:24:58.594Z,2.20
2019-04-01T00:27:28.435Z,2.37
2019-04-01T00:29:58.345Z,2.85
2019-04-01T00:32:30.648Z,2.70
2019-04-01T00:35:00.590Z,2.50
2019-04-01T00:38:07.026Z,2.27
2019-04-01T00:40:36.918Z,2.40
2019-04-01T00:43:17.569Z,2.50
2019-04-01T00:45:52.270Z,2.47
2019-04-01T00:48:22.098Z,2.70
2019-04-01T00:50:52.185Z,2.35
2019-04-01T00:53:22.155Z,2.50
2019-04-01T00:55:53.808Z,2.37
2019-04-01T00:58:23.678Z,2.05
2019-04-01T01:00:53.567Z,2.17
2019-04-01T01:03:23.405Z,2.10
2019-04-01T01:05:56.674Z,2.47
2019-04-01T01:08:29.498Z,2.55
2019-04-01T01:10:59.383Z,2.35
2019-04-01T01:13:29.217Z,2.10
2019-04-01T01:16:00.173Z,2.60
2019-04-01T01:18:29.938Z,2.20
2019-04-01T01:20:59.756Z,2.12
2019-04-01T01:23:29.525Z,2.23
2019-04-01T01:25:59.575Z,1.70
2019-04-01T01:28:32.085Z,2.40
2019-04-01T01:31:02.305Z,2.17
2019-04-01T01:33:32.125Z,2.23
2019-04-01T01:36:02.079Z,2.20
2019-04-01T01:38:31.857Z,2.47
2019-04-01T01:41:01.735Z,1.98
2019-04-01T01:43:31.639Z,1.90
2019-04-01T01:46:01.504Z,2.25
2019-04-01T01:48:34.388Z,2.08
2019-04-01T01:51:04.332Z,2.20
2019-04-01T01:53:35.105Z,2.33
2019-04-01T01:56:06.046Z,1.77
2019-04-01T01:58:36.615Z,2.02
2019-04-01T02:01:06.373Z,2.10
2019-04-01T02:03:37.307Z,2.10
2019-04-01T02:06:08.157Z,2.00
2019-04-01T02:08:38.163Z,2.12
2019-04-01T02:11:07.932Z,2.40
2019-04-01T02:13:37.813Z,2.52
2019-04-01T02:16:08.345Z,2.10
2019-04-01T02:18:40.850Z,2.40
2019-04-01T02:24:03.575Z,2.27
2019-04-01T02:26:33.356Z,2.55
2019-04-01T02:29:03.218Z,2.12
2019-04-01T02:31:33.138Z,2.10
2019-04-01T02:34:02.984Z,2.17
2019-04-01T02:36:51.886Z,2.20
2019-04-01T02:39:21.662Z,2.45
2019-04-01T02:41:51.566Z,2.27
2019-04-01T02:44:21.437Z,1.98
2019-04-01T02:47:09.474Z,2.00
2019-04-01T02:49:39.410Z,2.40
2019-04-01T02:52:09.240Z,2.50
2019-04-01T02:54:39.114Z,2.40
2019-04-01T02:57:09.093Z,2.40
2019-04-01T02:59:38.851Z,2.30
2019-04-01T03:02:08.669Z,2.25
2019-04-01T03:04:38.523Z,2.05
2019-04-01T03:07:10.349Z,2.63
2019-04-01T03:09:40.178Z,2.30
2019-04-01T03:12:10.113Z,2.30
2019-04-01T03:14:39.850Z,2.10
2019-04-01T03:17:30.443Z,2.37
2019-04-01T03:20:00.452Z,2.30
2019-04-01T03:22:33.472Z,2.40
2019-04-01T03:25:03.421Z,2.20
2019-04-01T03:27:35.697Z,2.27
2019-04-01T03:30:06.472Z,2.40
2019-04-01T03:32:44.648Z,2.40
2019-04-01T03:35:11.127Z,2.17
2019-04-01T03:37:40.936Z,2.30
2019-04-01T03:40:10.819Z,2.33
2019-04-01T03:42:40.693Z,2.67
2019-04-01T03:45:10.761Z,2.67
2019-04-01T03:47:40.650Z,2.37
2019-04-01T03:50:10.499Z,2.40
2019-04-01T03:52:40.515Z,2.60
2019-04-01T03:55:10.287Z,2.58
2019-04-01T03:57:40.253Z,2.40
2019-04-01T04:00:10.371Z,2.47
2019-04-01T04:02:40.276Z,2.50
2019-04-01T04:05:10.179Z,2.45
2019-04-01T04:07:43.478Z,2.47
2019-04-01T04:10:13.483Z,2.15
2019-04-01T04:12:43.469Z,2.25
2019-04-01T04:15:13.853Z,2.42
2019-04-01T04:17:43.751Z,1.80
2019-04-01T04:20:14.870Z,2.20
2019-04-01T04:22:44.772Z,2.10
2019-04-01T04:25:14.615Z,2.37
2019-04-01T04:27:44.418Z,2.27
2019-04-01T04:30:17.285Z,2.42
2019-04-01T04:32:47.146Z,2.42
2019-04-01T04:35:17.009Z,2.15
2019-04-01T04:37:46.883Z,2.00
2019-04-01T04:40:20.646Z,2.27
2019-04-01T04:43:27.601Z,2.15
2019-04-01T04:46:28.972Z,1.95
2019-04-01T04:48:58.784Z,2.30
2019-04-01T04:51:28.532Z,2.00
2019-04-01T04:53:58.382Z,1.80
2019-04-01T04:56:28.307Z,1.92
2019-04-01T04:58:58.102Z,2.12
2019-04-01T05:01:31.586Z,2.55
2019-04-01T05:04:01.515Z,2.40
2019-04-01T05:06:31.455Z,1.82
2019-04-01T05:09:01.292Z,2.20
2019-04-01T05:11:32.689Z,2.40
2019-04-01T05:14:02.555Z,2.10
2019-04-01T05:16:32.511Z,2.22
2019-04-01T05:19:02.348Z,2.52
2019-04-01T05:21:33.774Z,2.10
2019-04-01T05:24:03.622Z,2.12
2019-04-01T05:26:35.544Z,2.30
2019-04-01T05:29:05.720Z,1.82
2019-04-01T05:31:38.409Z,2.20
2019-04-01T05:34:10.127Z,2.25
2019-04-01T05:36:42.011Z,2.25
2019-04-01T05:39:11.836Z,2.00
2019-04-01T05:41:42.046Z,1.98
2019-04-01T05:44:11.874Z,1.98
2019-04-01T05:46:41.783Z,2.20
2019-04-01T05:49:11.594Z,2.00
2019-04-01T05:51:41.546Z,1.72
2019-04-01T05:54:11.318Z,1.73
2019-04-01T05:56:42.378Z,2.00
2019-04-01T05:59:12.197Z,1.95
2019-04-01T06:01:43.734Z,1.90
2019-04-01T06:04:13.605Z,2.02
2019-04-01T06:06:44.543Z,2.08
2019-04-01T06:09:14.410Z,2.37
2019-04-01T06:11:44.323Z,2.25
2019-04-01T06:14:14.641Z,2.05
2019-04-01T06:16:44.587Z,2.20
2019-04-01T06:19:14.747Z,2.22
2019-04-01T06:21:46.231Z,2.25
2019-04-01T06:24:16.049Z,2.10
2019-04-01T06:26:45.870Z,2.50
2019-04-01T06:29:15.638Z,1.80
2019-04-01T06:31:45.547Z,2.22
2019-04-01T06:34:15.429Z,1.77
2019-04-01T06:36:45.330Z,1.52
2019-04-01T06:39:15.041Z,2.10
2019-04-01T06:41:44.876Z,1.80
2019-04-01T06:44:16.313Z,2.95
2019-04-01T06:46:46.295Z,2.45
2019-04-01T06:49:16.269Z,2.13
2019-04-01T06:51:48.119Z,2.98
2019-04-01T06:54:17.693Z,2.60
2019-04-01T06:56:47.645Z,2.90
2019-04-01T06:59:17.544Z,2.63
2019-04-01T07:01:47.365Z,2.25
2019-04-01T07:04:17.276Z,1.98
2019-04-01T07:06:49.587Z,2.67
2019-04-01T07:09:19.877Z,2.50
2019-04-01T07:11:49.731Z,1.95
2019-04-01T07:14:21.705Z,1.97
2019-04-01T07:16:53.264Z,2.85
2019-04-01T07:19:26.436Z,2.52
2019-04-01T07:21:56.338Z,3.03
2019-04-01T07:24:26.153Z,2.60
2019-04-01T07:26:56.070Z,2.30
2019-04-01T07:29:25.992Z,2.67
2019-04-01T07:31:55.909Z,2.15
2019-04-01T07:34:25.830Z,2.40
2019-04-01T07:36:55.633Z,2.40
2019-04-01T07:39:25.540Z,2.55
2019-04-01T07:41:55.321Z,3.75
2019-04-01T07:44:26.657Z,3.17
2019-04-01T07:46:58.473Z,4.20
2019-04-01T07:49:28.363Z,4.08
2019-04-01T07:51:58.176Z,3.77
2019-04-01T07:54:28.199Z,3.52
2019-04-01T07:56:59.020Z,2.98
2019-04-01T07:59:28.842Z,3.35
2019-04-01T08:01:59.333Z,4.05
2019-04-01T08:04:29.266Z,3.08
2019-04-01T08:07:20.057Z,2.87
2019-04-01T08:09:49.961Z,3.23
2019-04-01T08:12:19.734Z,3.22
2019-04-01T08:14:49.613Z,3.20
2019-04-01T08:17:19.408Z,3.67
2019-04-01T08:19:51.108Z,2.95
2019-04-01T08:22:21.429Z,3.12
2019-04-01T08:24:51.331Z,3.33
2019-04-01T08:27:21.390Z,3.15
2019-04-01T08:29:52.738Z,3.17
2019-04-01T08:32:22.559Z,3.43
2019-04-01T08:34:52.488Z,3.17
2019-04-01T08:37:22.381Z,3.20
2019-04-01T08:39:52.188Z,3.45
2019-04-01T08:42:22.053Z,3.80
2019-04-01T08:44:51.913Z,3.10
2019-04-01T08:47:21.963Z,3.35
2019-04-01T08:49:53.100Z,3.02
2019-04-01T08:52:22.971Z,2.85
2019-04-01T08:54:53.008Z,2.87
2019-04-01T08:57:22.829Z,3.40
2019-04-01T08:59:56.081Z,3.00
2019-04-01T09:02:24.444Z,3.45
2019-04-01T09:04:54.265Z,3.22
2019-04-01T09:07:26.254Z,3.10
2019-04-01T09:09:57.761Z,3.13
2019-04-01T09:12:29.466Z,3.47
2019-04-01T09:14:59.754Z,3.87
2019-04-01T09:17:29.706Z,3.42
2019-04-01T09:19:59.594Z,3.30
2019-04-01T09:22:29.509Z,3.75
2019-04-01T09:24:59.328Z,3.40
2019-04-01T09:27:29.247Z,3.80
2019-04-01T09:30:00.471Z,3.70
2019-04-01T09:32:30.341Z,3.75
2019-04-01T09:35:00.516Z,3.47
2019-04-01T09:37:31.407Z,4.20
2019-04-01T09:40:01.299Z,4.10
2019-04-01T09:42:31.078Z,3.52
2019-04-01T09:45:00.958Z,3.92
2019-04-01T09:47:30.786Z,4.17
2019-04-01T09:50:00.712Z,4.10
2019-04-01T09:52:30.505Z,4.10
2019-04-01T09:55:00.460Z,4.03
2019-04-01T09:57:30.387Z,4.47
2019-04-01T10:00:00.360Z,4.28
2019-04-01T10:02:32.022Z,5.80
2019-04-01T10:05:01.816Z,4.78
2019-04-01T10:07:31.653Z,4.60
2019-04-01T10:10:01.564Z,4.75
2019-04-01T10:12:31.306Z,4.90
2019-04-01T10:15:01.212Z,5.30
2019-04-01T10:17:31.064Z,5.40
2019-04-01T10:20:01.555Z,5.50
2019-04-01T10:22:32.605Z,5.20
2019-04-01T10:25:02.457Z,5.50
2019-04-01T10:27:32.233Z,5.65
2019-04-01T10:30:02.218Z,5.13
2019-04-01T10:32:32.066Z,5.37
2019-04-01T10:35:01.980Z,7.45
2019-04-01T10:37:37.564Z,7.03
2019-04-01T10:40:08.946Z,7.10
2019-04-01T10:42:38.740Z,7.12
2019-04-01T10:45:10.261Z,7.03
2019-04-01T10:47:45.882Z,7.12
2019-04-01T10:50:16.015Z,7.22
2019-04-01T10:52:50.185Z,6.97
2019-04-01T10:55:20.057Z,6.72
2019-04-01T10:57:53.547Z,6.78
2019-04-01T11:00:22.220Z,7.03
2019-04-01T11:02:53.223Z,7.17
2019-04-01T11:05:23.160Z,6.97
2019-04-01T11:07:53.107Z,7.10
2019-04-01T11:10:24.917Z,6.95
2019-04-01T11:12:54.673Z,6.90
2019-04-01T11:15:24.663Z,6.92
2019-04-01T11:17:54.474Z,7.10
2019-04-01T11:20:26.761Z,6.65
2019-04-01T11:22:56.522Z,7.45
2019-04-01T11:25:28.520Z,6.67
2019-04-01T11:27:58.476Z,7.40
2019-04-01T11:30:28.289Z,7.12
2019-04-01T11:32:59.162Z,6.85
2019-04-01T11:35:29.301Z,6.90
2019-04-01T11:37:59.258Z,7.20
2019-04-01T11:40:29.151Z,7.22
2019-04-01T11:42:59.124Z,6.47
2019-04-01T11:45:28.949Z,6.92
2019-04-01T11:47:58.859Z,6.73
2019-04-01T11:50:28.697Z,6.55
2019-04-01T11:52:58.573Z,7.03
2019-04-01T11:55:28.560Z,7.53
2019-04-01T11:57:58.450Z,7.47
2019-04-01T12:00:28.257Z,6.75
2019-04-01T12:02:58.160Z,6.75
2019-04-01T12:05:28.034Z,7.50
2019-04-01T12:07:57.825Z,7.60
2019-04-01T12:10:27.678Z,7.58
2019-04-01T12:12:57.530Z,7.13
2019-04-01T12:15:27.358Z,7.33
2019-04-01T12:17:57.245Z,7.28
2019-04-01T12:20:27.082Z,7.57
2019-04-01T12:22:56.896Z,7.30
2019-04-01T12:25:44.659Z,7.83
2019-04-01T12:28:14.503Z,7.50
2019-04-01T12:30:44.239Z,7.35
2019-04-01T12:33:14.160Z,8.30
2019-04-01T12:35:43.953Z,8.08
2019-04-01T12:38:13.791Z,8.43
2019-04-01T12:40:43.617Z,7.90
2019-04-01T12:43:13.478Z,8.73
2019-04-01T12:45:43.356Z,8.15
2019-04-01T12:48:13.195Z,8.78
2019-04-01T12:50:43.096Z,8.73
2019-04-01T12:53:12.916Z,9.15
2019-04-01T12:55:44.963Z,9.00
2019-04-01T12:58:17.643Z,8.90
2019-04-01T13:00:46.320Z,9.00
2019-04-01T13:03:16.182Z,9.60
2019-04-01T13:05:47.112Z,9.50
2019-04-01T13:08:16.945Z,9.20
2019-04-01T13:10:46.842Z,9.13
2019-04-01T13:13:16.618Z,10.55
2019-04-01T13:15:48.475Z,9.38
2019-04-01T13:18:18.960Z,9.87
2019-04-01T13:20:51.785Z,9.70
2019-04-01T13:23:20.431Z,9.55
2019-04-01T13:25:52.303Z,10.60
2019-04-01T13:28:22.087Z,9.98
2019-04-01T13:30:51.872Z,9.55
2019-04-01T13:33:23.193Z,10.00
2019-04-01T13:35:53.216Z,10.78
2019-04-01T13:38:23.109Z,11.68
2019-04-01T13:40:52.949Z,10.53
2019-04-01T13:43:22.722Z,11.03
2019-04-01T13:45:54.666Z,10.17
2019-04-01T13:48:24.494Z,10.80
2019-04-01T13:50:54.270Z,10.95
2019-04-01T13:53:24.029Z,10.03
2019-04-01T13:55:56.029Z,11.25
2019-04-01T13:58:25.918Z,10.78
2019-04-01T14:00:57.391Z,11.15
2019-04-01T14:03:27.313Z,11.00
2019-04-01T14:05:57.219Z,11.33
2019-04-01T14:08:26.969Z,11.10
2019-04-01T14:10:56.696Z,11.60
2019-04-01T14:13:26.685Z,11.10
2019-04-01T14:15:57.523Z,11.48
2019-04-01T14:18:27.458Z,11.30
2019-04-01T14:20:57.189Z,11.17
2019-04-01T14:23:27.066Z,11.22
2019-04-01T14:25:56.812Z,11.53
2019-04-01T14:28:26.696Z,11.73
2019-04-01T14:30:56.534Z,11.55
2019-04-01T14:33:26.436Z,11.68
2019-04-01T14:35:56.198Z,11.65
2019-04-01T14:38:26.010Z,11.63
2019-04-01T14:40:58.152Z,11.43
2019-04-01T14:43:30.920Z,11.35
2019-04-01T14:45:58.932Z,11.48
2019-04-01T14:48:28.745Z,11.78
2019-04-01T14:50:59.715Z,13.43
2019-04-01T14:53:29.500Z,13.10
2019-04-01T14:56:00.353Z,11.90
2019-04-01T14:58:30.139Z,12.17
2019-04-01T15:01:01.391Z,13.28
2019-04-01T15:03:31.560Z,13.15
2019-04-01T15:06:01.412Z,12.30
2019-04-01T15:08:31.345Z,12.10
2019-04-01T15:11:01.185Z,13.05
2019-04-01T15:13:31.072Z,12.35
2019-04-01T15:16:01.912Z,11.97
2019-04-01T15:18:34.344Z,12.47
2019-04-01T15:21:03.205Z,12.23
2019-04-01T15:23:33.067Z,12.55
2019-04-01T15:26:03.802Z,12.28
2019-04-01T15:28:34.114Z,12.28
2019-04-01T15:31:03.981Z,12.77
2019-04-01T15:33:33.865Z,13.68
2019-04-01T15:36:04.265Z,12.10
2019-04-01T15:38:34.297Z,13.03
2019-04-01T15:41:04.239Z,12.58
2019-04-01T15:43:34.129Z,13.43
2019-04-01T15:46:04.356Z,13.18
2019-04-01T15:48:34.833Z,13.83
2019-04-01T15:51:04.672Z,12.65
2019-04-01T15:53:34.885Z,14.47
2019-04-01T15:56:05.282Z,12.30
2019-04-01T15:58:35.085Z,12.30
2019-04-01T16:01:05.112Z,13.03
2019-04-01T16:03:35.017Z,12.47
2019-04-01T16:06:07.609Z,13.28
2019-04-01T16:08:36.465Z,13.00
2019-04-01T16:11:06.272Z,13.00
2019-04-01T16:13:36.166Z,12.20
2019-04-01T16:16:06.998Z,13.58
2019-04-01T16:18:36.971Z,13.03
2019-04-01T16:21:06.731Z,12.77
2019-04-01T16:23:36.593Z,14.38
2019-04-01T16:26:09.322Z,13.95
2019-04-01T16:28:37.950Z,14.38
2019-04-01T16:31:07.764Z,12.95
2019-04-01T16:33:37.516Z,12.82
2019-04-01T16:36:07.545Z,14.23
2019-04-01T16:38:37.392Z,13.23
2019-04-01T16:41:07.299Z,12.82
2019-04-01T16:43:38.317Z,12.35
2019-04-01T16:46:08.477Z,14.40
2019-04-01T16:48:38.650Z,14.93
2019-04-01T16:51:08.645Z,13.40
2019-04-01T16:53:38.546Z,12.58
2019-04-01T16:56:08.444Z,14.53
2019-04-01T16:58:38.289Z,13.23
2019-04-01T17:01:08.184Z,13.88
2019-04-01T17:03:38.030Z,15.10
2019-04-01T17:06:07.879Z,13.60
2019-04-01T17:08:39.163Z,15.20
2019-04-01T17:11:09.179Z,14.15
2019-04-01T17:13:39.005Z,15.13
2019-04-01T17:16:08.915Z,14.95
2019-04-01T17:18:39.220Z,15.00
2019-04-01T17:21:09.040Z,15.23
2019-04-01T17:23:41.801Z,12.50
2019-04-01T17:26:10.313Z,15.40
2019-04-01T17:28:40.196Z,15.20
2019-04-01T17:31:10.037Z,14.70
2019-04-01T17:33:39.875Z,13.08
2019-04-01T17:36:10.938Z,14.00
2019-04-01T17:38:41.057Z,13.53
2019-04-01T17:41:10.989Z,14.33
2019-04-01T17:43:40.880Z,14.85
2019-04-01T17:46:10.737Z,15.38
2019-04-01T17:48:40.688Z,13.53
2019-04-01T17:51:10.483Z,14.20
2019-04-01T17:53:40.291Z,13.63
2019-04-01T17:56:10.053Z,14.45
2019-04-01T17:58:39.904Z,13.70
2019-04-01T18:01:10.544Z,14.43
2019-04-01T18:03:40.770Z,13.25
2019-04-01T18:06:10.609Z,14.18
2019-04-01T18:08:40.419Z,14.35
2019-04-01T18:11:10.338Z,14.40
2019-04-01T18:13:40.234Z,15.48
2019-04-01T18:16:10.220Z,13.55
2019-04-01T18:18:40.895Z,13.65
2019-04-01T18:21:10.741Z,14.27
2019-04-01T18:23:40.614Z,14.33
2019-04-01T18:26:10.552Z,15.03
2019-04-01T18:28:41.240Z,14.18
2019-04-01T18:31:11.330Z,14.78
2019-04-01T18:33:55.361Z,14.55
2019-04-01T18:36:13.602Z,14.35
2019-04-01T18:38:43.367Z,15.08
2019-04-01T18:41:13.293Z,14.23
2019-04-01T18:43:43.092Z,15.08
2019-04-01T18:46:13.177Z,14.00
2019-04-01T18:48:43.025Z,14.65
2019-04-01T18:51:12.860Z,14.98
2019-04-01T18:53:42.673Z,15.08
2019-04-01T18:56:12.599Z,14.87
2019-04-01T18:58:42.435Z,14.70
2019-04-01T19:01:12.335Z,14.58
2019-04-01T19:03:43.060Z,14.47
2019-04-01T19:06:13.105Z,15.03
2019-04-01T19:08:42.968Z,15.28
2019-04-01T19:11:12.746Z,14.75
2019-04-01T19:13:42.750Z,16.42
2019-04-01T19:16:16.655Z,15.32
2019-04-01T19:18:46.000Z,15.10
2019-04-01T19:21:15.860Z,15.15
2019-04-01T19:23:45.713Z,14.70
2019-04-01T19:26:15.589Z,15.32
2019-04-01T19:28:47.066Z,14.93
2019-04-01T19:31:17.046Z,15.90
2019-04-01T19:33:46.796Z,14.60
2019-04-01T19:36:16.611Z,14.85
2019-04-01T19:38:46.568Z,14.28
2019-04-01T19:41:16.336Z,15.15
2019-04-01T19:43:46.229Z,14.90
2019-04-01T19:46:17.013Z,14.70
2019-04-01T19:48:47.833Z,15.85
2019-04-01T19:51:17.605Z,15.20
2019-04-01T19:53:47.513Z,14.90
2019-04-01T19:56:17.317Z,14.13
2019-04-01T19:58:47.125Z,14.53
2019-04-01T20:01:17.031Z,14.60
2019-04-01T20:03:46.809Z,14.93
2019-04-01T20:06:17.462Z,14.47
2019-04-01T20:08:49.684Z,14.43
2019-04-01T20:11:19.741Z,14.50
2019-04-01T20:13:49.637Z,15.28
2019-04-01T20:16:19.362Z,14.95
2019-04-01T20:18:49.219Z,15.00
2019-04-01T20:21:19.049Z,14.93
2019-04-01T20:23:48.963Z,14.75
2019-04-01T20:26:18.710Z,14.58
2019-04-01T20:28:48.496Z,14.70
2019-04-01T20:31:18.269Z,14.63
2019-04-01T20:33:49.165Z,15.30
2019-04-01T20:36:28.532Z,15.10
2019-04-01T20:38:50.806Z,15.65
2019-04-01T20:41:21.203Z,16.47
2019-04-01T20:43:51.401Z,16.15
2019-04-01T20:46:21.181Z,14.73
2019-04-01T20:48:51.073Z,14.80
2019-04-01T20:51:20.913Z,15.13
2019-04-01T20:53:51.348Z,15.25
2019-04-01T20:56:22.424Z,14.80
2019-04-01T20:58:52.229Z,14.55
2019-04-01T21:01:21.997Z,14.87
2019-04-01T21:03:51.870Z,14.78
2019-04-01T21:06:22.080Z,15.10
2019-04-01T21:08:53.812Z,14.45
2019-04-01T21:11:23.724Z,14.35
2019-04-01T21:13:54.869Z,14.33
2019-04-01T21:16:24.721Z,15.18
2019-04-01T21:18:54.704Z,14.38
2019-04-01T21:21:24.550Z,14.53
2019-04-01T21:23:54.429Z,14.68
2019-04-01T21:26:27.774Z,14.58
2019-04-01T21:28:57.669Z,15.00
2019-04-01T21:31:29.360Z,14.40
2019-04-01T21:33:59.258Z,15.20
2019-04-01T21:36:29.068Z,14.78
2019-04-01T21:38:58.898Z,15.88
2019-04-01T21:41:28.646Z,15.45
2019-04-01T21:43:58.415Z,15.15
2019-04-01T21:46:28.323Z,14.83
2019-04-01T21:48:59.694Z,15.13
2019-04-01T21:51:29.529Z,15.55
2019-04-01T21:53:59.920Z,15.38
2019-04-01T21:56:29.871Z,15.03
2019-04-01T21:58:59.611Z,15.00
2019-04-01T22:01:29.727Z,15.75
2019-04-01T22:04:00.551Z,16.10
2019-04-01T22:06:30.275Z,15.58
2019-04-01T22:09:00.060Z,15.72
2019-04-01T22:11:30.057Z,15.50
2019-04-01T22:13:59.858Z,15.90
2019-04-01T22:16:29.707Z,15.90
2019-04-01T22:19:00.563Z,15.10
2019-04-01T22:21:30.428Z,15.73
2019-04-01T22:24:01.294Z,16.05
2019-04-01T22:26:32.120Z,15.45
2019-04-01T22:29:01.959Z,16.73
2019-04-01T22:31:31.751Z,16.27
2019-04-01T22:34:01.535Z,15.83
2019-04-01T22:36:31.539Z,15.43
2019-04-01T22:39:01.432Z,15.93
2019-04-01T22:41:32.729Z,16.15
2019-04-01T22:44:02.462Z,15.68
2019-04-01T22:46:34.462Z,16.47
2019-04-01T22:49:05.096Z,16.57
2019-04-01T22:51:34.948Z,16.10
2019-04-01T22:54:04.792Z,15.73
2019-04-01T22:56:34.626Z,16.65
2019-04-01T22:59:04.343Z,16.15
2019-04-01T23:01:34.314Z,16.23
2019-04-01T23:04:04.091Z,16.35
2019-04-01T23:06:35.374Z,17.27
2019-04-01T23:09:07.047Z,16.50
2019-04-01T23:11:36.839Z,17.40
2019-04-01T23:14:07.590Z,16.50
2019-04-01T23:16:37.413Z,16.57
2019-04-01T23:19:07.167Z,16.65
2019-04-01T23:21:36.970Z,16.73
2019-04-01T23:24:07.755Z,16.50
2019-04-01T23:26:37.610Z,17.45
2019-04-01T23:29:07.338Z,17.45
2019-04-01T23:31:38.489Z,17.73
2019-04-01T23:34:08.368Z,17.23
2019-04-01T23:36:38.241Z,17.45
2019-04-01T23:39:08.432Z,16.37
2019-04-01T23:41:38.207Z,17.57
2019-04-01T23:44:07.978Z,16.93
2019-04-01T23:46:37.775Z,17.70
2019-04-01T23:49:07.578Z,17.65
2019-04-01T23:51:37.346Z,17.85
2019-04-01T23:54:07.070Z,17.90
2019-04-01T23:56:36.901Z,17.85
2019-04-01T23:59:06.671Z,18.30
